sensor_id;sensor_type;location;lat;lon;timestamp;pressure;altitude;pressure_sealevel;temperature;humidity
8699;BME280;4386;51.236;6.742;2022-08-25T00:00:39;101235.97;;;26.77;40.13
8699;BME280;4386;51.236;6.742;2022-08-25T00:01:46;101231.81;;;26.75;39.79
8699;BME280;4386;51.236;6.742;2022-08-25T00:02:50;101237.25;;;26.75;40.39
8699;BME280;4386;51.236;6.742;2022-08-25T00:03:56;101234.53;;;26.75;40.69
8699;BME280;4386;51.236;6.742;2022-08-25T00:05:00;101232.84;;;26.74;40.67
8699;BME280;4386;51.236;6.742;2022-08-25T00:06:04;101233.91;;;26.73;40.88
8699;BME280;4386;51.236;6.742;2022-08-25T00:07:07;101225.94;;;26.71;40.81
8699;BME280;4386;51.236;6.742;2022-08-25T00:08:08;101228.91;;;26.70;40.70
8699;BME280;4386;51.236;6.742;2022-08-25T00:09:13;101231.63;;;26.70;40.60
8699;BME280;4386;51.236;6.742;2022-08-25T00:10:16;101235.56;;;26.67;40.75
8699;BME280;4386;51.236;6.742;2022-08-25T00:11:22;101238.31;;;26.67;41.17
8699;BME280;4386;51.236;6.742;2022-08-25T00:12:24;101229.53;;;26.65;41.20
8699;BME280;4386;51.236;6.742;2022-08-25T00:13:27;101237.88;;;26.64;40.84
8699;BME280;4386;51.236;6.742;2022-08-25T00:14:32;101237.06;;;26.63;40.83
8699;BME280;4386;51.236;6.742;2022-08-25T00:15:35;101234.56;;;26.62;41.04
8699;BME280;4386;51.236;6.742;2022-08-25T00:16:37;101242.09;;;26.60;41.11
8699;BME280;4386;51.236;6.742;2022-08-25T00:17:40;101242.53;;;26.57;40.78
8699;BME280;4386;51.236;6.742;2022-08-25T00:18:43;101235.41;;;26.56;41.40
8699;BME280;4386;51.236;6.742;2022-08-25T00:19:46;101232.06;;;26.54;41.32
8699;BME280;4386;51.236;6.742;2022-08-25T00:20:48;101242.09;;;26.53;40.95
8699;BME280;4386;51.236;6.742;2022-08-25T00:21:51;101235.00;;;26.52;41.07
8699;BME280;4386;51.236;6.742;2022-08-25T00:22:53;101241.69;;;26.50;41.72
8699;BME280;4386;51.236;6.742;2022-08-25T00:23:57;101241.69;;;26.50;41.53
8699;BME280;4386;51.236;6.742;2022-08-25T00:24:59;101234.56;;;26.49;41.58
8699;BME280;4386;51.236;6.742;2022-08-25T00:26:03;101233.13;;;26.46;41.21
8699;BME280;4386;51.236;6.742;2022-08-25T00:27:05;101237.72;;;26.46;41.03
8699;BME280;4386;51.236;6.742;2022-08-25T00:28:08;101238.75;;;26.45;41.78
8699;BME280;4386;51.236;6.742;2022-08-25T00:29:10;101240.84;;;26.42;41.06
8699;BME280;4386;51.236;6.742;2022-08-25T00:30:13;101241.06;;;26.41;41.36
8699;BME280;4386;51.236;6.742;2022-08-25T00:31:19;101241.28;;;26.39;41.74
8699;BME280;4386;51.236;6.742;2022-08-25T00:32:38;101237.09;;;26.37;41.25
8699;BME280;4386;51.236;6.742;2022-08-25T00:33:40;101242.53;;;26.37;41.32
8699;BME280;4386;51.236;6.742;2022-08-25T00:34:43;101246.50;;;26.34;41.16
8699;BME280;4386;51.236;6.742;2022-08-25T00:35:45;101237.53;;;26.34;41.18
8699;BME280;4386;51.236;6.742;2022-08-25T00:36:48;101241.28;;;26.33;41.85
8699;BME280;4386;51.236;6.742;2022-08-25T00:37:52;101245.88;;;26.32;41.14
8699;BME280;4386;51.236;6.742;2022-08-25T00:38:54;101245.03;;;26.32;41.14
8699;BME280;4386;51.236;6.742;2022-08-25T00:39:56;101241.47;;;26.31;41.50
8699;BME280;4386;51.236;6.742;2022-08-25T00:40:59;101242.56;;;26.30;41.75
8699;BME280;4386;51.236;6.742;2022-08-25T00:42:08;101250.06;;;26.28;41.70
8699;BME280;4386;51.236;6.742;2022-08-25T00:43:17;101251.13;;;26.27;41.15
8699;BME280;4386;51.236;6.742;2022-08-25T00:44:19;101246.50;;;26.28;41.52
8699;BME280;4386;51.236;6.742;2022-08-25T00:45:22;101246.72;;;26.26;41.85
8699;BME280;4386;51.236;6.742;2022-08-25T00:46:26;101246.72;;;26.26;41.83
8699;BME280;4386;51.236;6.742;2022-08-25T00:47:29;101251.50;;;26.24;41.73
8699;BME280;4386;51.236;6.742;2022-08-25T00:48:31;101253.41;;;26.24;41.49
8699;BME280;4386;51.236;6.742;2022-08-25T00:49:36;101249.88;;;26.23;41.88
8699;BME280;4386;51.236;6.742;2022-08-25T00:50:39;101244.63;;;26.22;41.33
8699;BME280;4386;51.236;6.742;2022-08-25T00:51:46;101245.47;;;26.22;41.59
8699;BME280;4386;51.236;6.742;2022-08-25T00:52:51;101244.63;;;26.22;41.40
8699;BME280;4386;51.236;6.742;2022-08-25T00:53:55;101250.28;;;26.20;42.02
8699;BME280;4386;51.236;6.742;2022-08-25T00:54:59;101246.50;;;26.21;41.16
8699;BME280;4386;51.236;6.742;2022-08-25T00:56:09;101246.72;;;26.20;41.88
8699;BME280;4386;51.236;6.742;2022-08-25T00:57:14;101246.72;;;26.20;41.45
8699;BME280;4386;51.236;6.742;2022-08-25T00:58:24;101249.63;;;26.18;41.41
8699;BME280;4386;51.236;6.742;2022-08-25T00:59:27;101247.16;;;26.17;41.74
8699;BME280;4386;51.236;6.742;2022-08-25T01:00:32;101251.75;;;26.16;41.41
8699;BME280;4386;51.236;6.742;2022-08-25T01:01:34;101248.38;;;26.14;41.14
8699;BME280;4386;51.236;6.742;2022-08-25T01:02:38;101248.38;;;26.14;41.73
8699;BME280;4386;51.236;6.742;2022-08-25T01:03:40;101245.44;;;26.16;41.51
8699;BME280;4386;51.236;6.742;2022-08-25T01:04:43;101249.41;;;26.13;41.23
8699;BME280;4386;51.236;6.742;2022-08-25T01:05:50;101253.16;;;26.12;41.61
8699;BME280;4386;51.236;6.742;2022-08-25T01:06:53;101246.03;;;26.11;41.42
8699;BME280;4386;51.236;6.742;2022-08-25T01:07:56;101249.81;;;26.10;41.72
8699;BME280;4386;51.236;6.742;2022-08-25T01:09:00;101247.94;;;26.11;41.78
8699;BME280;4386;51.236;6.742;2022-08-25T01:10:04;101241.69;;;26.10;41.82
8699;BME280;4386;51.236;6.742;2022-08-25T01:11:09;101251.69;;;26.10;41.84
8699;BME280;4386;51.236;6.742;2022-08-25T01:12:12;101238.31;;;26.08;41.26
8699;BME280;4386;51.236;6.742;2022-08-25T01:13:20;101250.03;;;26.09;41.87
8699;BME280;4386;51.236;6.742;2022-08-25T01:14:24;101243.13;;;26.06;41.52
8699;BME280;4386;51.236;6.742;2022-08-25T01:15:28;101250.44;;;26.06;41.73
8699;BME280;4386;51.236;6.742;2022-08-25T01:16:31;101244.16;;;26.05;41.51
8699;BME280;4386;51.236;6.742;2022-08-25T01:17:38;101247.09;;;26.04;41.49
8699;BME280;4386;51.236;6.742;2022-08-25T01:18:47;101245.41;;;26.03;41.49
8699;BME280;4386;51.236;6.742;2022-08-25T01:19:50;101247.28;;;26.02;41.71
8699;BME280;4386;51.236;6.742;2022-08-25T01:20:54;101245.66;;;26.01;42.33
8699;BME280;4386;51.236;6.742;2022-08-25T01:21:56;101242.94;;;26.01;42.29
8699;BME280;4386;51.236;6.742;2022-08-25T01:22:59;101246.03;;;25.98;41.71
8699;BME280;4386;51.236;6.742;2022-08-25T01:24:03;101248.75;;;25.98;41.94
8699;BME280;4386;51.236;6.742;2022-08-25T01:25:16;101250.84;;;25.96;41.79
8699;BME280;4386;51.236;6.742;2022-08-25T01:26:25;101241.25;;;25.94;42.15
8699;BME280;4386;51.236;6.742;2022-08-25T01:27:31;101242.50;;;25.91;42.28
8699;BME280;4386;51.236;6.742;2022-08-25T01:28:34;101247.94;;;25.91;42.48
8699;BME280;4386;51.236;6.742;2022-08-25T01:29:37;101255.44;;;25.89;42.10
8699;BME280;4386;51.236;6.742;2022-08-25T01:30:40;101251.88;;;25.88;42.32
8699;BME280;4386;51.236;6.742;2022-08-25T01:31:42;101253.78;;;25.88;42.58
8699;BME280;4386;51.236;6.742;2022-08-25T01:32:45;101244.97;;;25.86;42.90
8699;BME280;4386;51.236;6.742;2022-08-25T01:33:47;101254.19;;;25.85;42.15
8699;BME280;4386;51.236;6.742;2022-08-25T01:34:50;101248.94;;;25.83;42.26
8699;BME280;4386;51.236;6.742;2022-08-25T01:35:53;101250.00;;;25.82;42.81
8699;BME280;4386;51.236;6.742;2022-08-25T01:36:57;101244.56;;;25.82;42.30
8699;BME280;4386;51.236;6.742;2022-08-25T01:37:59;101251.25;;;25.80;42.82
8699;BME280;4386;51.236;6.742;2022-08-25T01:39:03;101246.84;;;25.79;42.95
8699;BME280;4386;51.236;6.742;2022-08-25T01:40:06;101248.53;;;25.80;42.92
8699;BME280;4386;51.236;6.742;2022-08-25T01:41:09;101246.84;;;25.79;42.98
8699;BME280;4386;51.236;6.742;2022-08-25T01:42:22;101249.56;;;25.79;42.95
8699;BME280;4386;51.236;6.742;2022-08-25T01:43:31;101241.63;;;25.77;42.35
8699;BME280;4386;51.236;6.742;2022-08-25T01:44:38;101241.63;;;25.77;43.05
8699;BME280;4386;51.236;6.742;2022-08-25T01:45:44;101246.22;;;25.77;42.71
8699;BME280;4386;51.236;6.742;2022-08-25T01:46:47;101240.97;;;25.75;42.59
8699;BME280;4386;51.236;6.742;2022-08-25T01:47:49;101241.22;;;25.74;42.58
8699;BME280;4386;51.236;6.742;2022-08-25T01:48:51;101246.63;;;25.74;42.59
8699;BME280;4386;51.236;6.742;2022-08-25T01:49:54;101243.31;;;25.72;42.52
8699;BME280;4386;51.236;6.742;2022-08-25T01:50:57;101241.22;;;25.74;42.39
8699;BME280;4386;51.236;6.742;2022-08-25T01:52:05;101237.88;;;25.72;43.07
8699;BME280;4386;51.236;6.742;2022-08-25T01:53:11;101242.66;;;25.70;42.95
8699;BME280;4386;51.236;6.742;2022-08-25T01:54:14;101242.66;;;25.70;42.50
8699;BME280;4386;51.236;6.742;2022-08-25T01:55:16;101242.03;;;25.68;42.95
8699;BME280;4386;51.236;6.742;2022-08-25T01:56:19;101246.63;;;25.67;42.95
8699;BME280;4386;51.236;6.742;2022-08-25T01:57:21;101240.34;;;25.67;43.17
8699;BME280;4386;51.236;6.742;2022-08-25T01:58:26;101247.88;;;25.65;42.63
8699;BME280;4386;51.236;6.742;2022-08-25T01:59:29;101240.94;;;25.62;43.27
8699;BME280;4386;51.236;6.742;2022-08-25T02:00:31;101242.63;;;25.63;42.92
8699;BME280;4386;51.236;6.742;2022-08-25T02:01:33;101244.50;;;25.63;42.97
8699;BME280;4386;51.236;6.742;2022-08-25T02:02:36;101242.84;;;25.62;43.11
8699;BME280;4386;51.236;6.742;2022-08-25T02:03:44;101240.16;;;25.62;43.23
8699;BME280;4386;51.236;6.742;2022-08-25T02:04:48;101246.59;;;25.61;43.29
8699;BME280;4386;51.236;6.742;2022-08-25T02:05:51;101244.72;;;25.61;42.63
8699;BME280;4386;51.236;6.742;2022-08-25T02:06:56;101242.22;;;25.60;43.23
8699;BME280;4386;51.236;6.742;2022-08-25T02:07:58;101250.34;;;25.60;43.17
8699;BME280;4386;51.236;6.742;2022-08-25T02:09:06;101250.34;;;25.60;42.78
8699;BME280;4386;51.236;6.742;2022-08-25T02:10:10;101249.50;;;25.59;42.82
8699;BME280;4386;51.236;6.742;2022-08-25T02:11:14;101247.84;;;25.58;43.19
8699;BME280;4386;51.236;6.742;2022-08-25T02:12:15;101252.44;;;25.58;43.17
8699;BME280;4386;51.236;6.742;2022-08-25T02:13:19;101248.06;;;25.57;42.63
8699;BME280;4386;51.236;6.742;2022-08-25T02:14:27;101243.66;;;25.56;43.32
8699;BME280;4386;51.236;6.742;2022-08-25T02:15:30;101244.72;;;25.55;42.62
8699;BME280;4386;51.236;6.742;2022-08-25T02:16:34;101242.84;;;25.55;42.71
8699;BME280;4386;51.236;6.742;2022-08-25T02:17:37;101247.44;;;25.55;43.12
8699;BME280;4386;51.236;6.742;2022-08-25T02:18:39;101247.63;;;25.53;42.83
8699;BME280;4386;51.236;6.742;2022-08-25T02:19:42;101243.03;;;25.54;42.72
8699;BME280;4386;51.236;6.742;2022-08-25T02:20:44;101245.75;;;25.54;43.35
8699;BME280;4386;51.236;6.742;2022-08-25T02:21:47;101241.56;;;25.51;43.31
8699;BME280;4386;51.236;6.742;2022-08-25T02:22:51;101244.28;;;25.51;43.55
8699;BME280;4386;51.236;6.742;2022-08-25T02:23:57;101246.16;;;25.51;43.31
8699;BME280;4386;51.236;6.742;2022-08-25T02:25:01;101243.44;;;25.51;43.34
8699;BME280;4386;51.236;6.742;2022-08-25T02:26:03;101250.75;;;25.50;43.17
8699;BME280;4386;51.236;6.742;2022-08-25T02:27:05;101244.47;;;25.50;43.23
8699;BME280;4386;51.236;6.742;2022-08-25T02:28:09;101246.31;;;25.49;43.69
8699;BME280;4386;51.236;6.742;2022-08-25T02:29:10;101247.38;;;25.48;43.01
8699;BME280;4386;51.236;6.742;2022-08-25T02:30:14;101242.13;;;25.47;43.70
8699;BME280;4386;51.236;6.742;2022-08-25T02:31:17;101240.47;;;25.46;43.18
8699;BME280;4386;51.236;6.742;2022-08-25T02:32:20;101240.47;;;25.46;43.18
8699;BME280;4386;51.236;6.742;2022-08-25T02:33:23;101237.13;;;25.44;43.51
8699;BME280;4386;51.236;6.742;2022-08-25T02:34:25;101239.84;;;25.44;43.64
8699;BME280;4386;51.236;6.742;2022-08-25T02:35:27;101239.84;;;25.44;42.96
8699;BME280;4386;51.236;6.742;2022-08-25T02:36:30;101237.97;;;25.44;43.03
8699;BME280;4386;51.236;6.742;2022-08-25T02:37:34;101236.28;;;25.43;43.74
8699;BME280;4386;51.236;6.742;2022-08-25T02:38:37;101233.78;;;25.42;43.68
8699;BME280;4386;51.236;6.742;2022-08-25T02:39:40;101241.09;;;25.41;43.56
8699;BME280;4386;51.236;6.742;2022-08-25T02:40:42;101238.56;;;25.39;43.99
8699;BME280;4386;51.236;6.742;2022-08-25T02:41:44;101236.91;;;25.38;43.99
8699;BME280;4386;51.236;6.742;2022-08-25T02:42:46;101235.22;;;25.37;44.00
8699;BME280;4386;51.236;6.742;2022-08-25T02:43:49;101238.97;;;25.36;43.77
8699;BME280;4386;51.236;6.742;2022-08-25T02:44:51;101231.03;;;25.35;43.79
8699;BME280;4386;51.236;6.742;2022-08-25T02:45:54;101231.88;;;25.35;43.75
8699;BME280;4386;51.236;6.742;2022-08-25T02:46:57;101236.66;;;25.33;43.60
8699;BME280;4386;51.236;6.742;2022-08-25T02:47:59;101231.88;;;25.35;43.47
8699;BME280;4386;51.236;6.742;2022-08-25T02:49:01;101228.34;;;25.35;43.43
8699;BME280;4386;51.236;6.742;2022-08-25T02:50:05;101234.59;;;25.35;43.61
8699;BME280;4386;51.236;6.742;2022-08-25T02:51:08;101230.22;;;25.34;44.06
8699;BME280;4386;51.236;6.742;2022-08-25T02:52:12;101228.53;;;25.33;43.69
8699;BME280;4386;51.236;6.742;2022-08-25T02:53:15;101225.81;;;25.33;44.09
8699;BME280;4386;51.236;6.742;2022-08-25T02:54:18;101223.94;;;25.34;44.21
8699;BME280;4386;51.236;6.742;2022-08-25T02:55:21;101227.91;;;25.31;44.53
8699;BME280;4386;51.236;6.742;2022-08-25T02:56:24;101227.91;;;25.31;44.18
8699;BME280;4386;51.236;6.742;2022-08-25T02:57:27;101225.38;;;25.30;44.27
8699;BME280;4386;51.236;6.742;2022-08-25T02:58:29;101227.25;;;25.29;44.07
8699;BME280;4386;51.236;6.742;2022-08-25T02:59:32;101226.44;;;25.29;44.57
8699;BME280;4386;51.236;6.742;2022-08-25T03:00:34;101225.59;;;25.28;44.47
8699;BME280;4386;51.236;6.742;2022-08-25T03:01:37;101221.81;;;25.29;44.27
8699;BME280;4386;51.236;6.742;2022-08-25T03:02:38;101216.38;;;25.29;44.52
8699;BME280;4386;51.236;6.742;2022-08-25T03:03:43;101225.59;;;25.28;43.95
8699;BME280;4386;51.236;6.742;2022-08-25T03:04:45;101220.16;;;25.28;44.16
8699;BME280;4386;51.236;6.742;2022-08-25T03:05:48;101221.19;;;25.27;44.20
8699;BME280;4386;51.236;6.742;2022-08-25T03:06:54;101219.50;;;25.26;44.28
8699;BME280;4386;51.236;6.742;2022-08-25T03:08:00;101216.81;;;25.26;44.40
8699;BME280;4386;51.236;6.742;2022-08-25T03:09:03;101211.38;;;25.26;44.56
8699;BME280;4386;51.236;6.742;2022-08-25T03:10:10;101212.44;;;25.25;44.25
8699;BME280;4386;51.236;6.742;2022-08-25T03:11:13;101206.16;;;25.25;44.77
8699;BME280;4386;51.236;6.742;2022-08-25T03:12:16;101211.59;;;25.25;44.61
8699;BME280;4386;51.236;6.742;2022-08-25T03:13:18;101208.03;;;25.24;44.89
8699;BME280;4386;51.236;6.742;2022-08-25T03:14:21;101210.75;;;25.24;44.52
8699;BME280;4386;51.236;6.742;2022-08-25T03:15:23;101208.88;;;25.25;44.83
8699;BME280;4386;51.236;6.742;2022-08-25T03:16:32;101207.41;;;25.22;45.02
8699;BME280;4386;51.236;6.742;2022-08-25T03:17:35;101204.69;;;25.22;44.84
8699;BME280;4386;51.236;6.742;2022-08-25T03:18:40;101203.00;;;25.21;44.68
8699;BME280;4386;51.236;6.742;2022-08-25T03:19:42;101202.19;;;25.21;44.87
8699;BME280;4386;51.236;6.742;2022-08-25T03:20:50;101200.31;;;25.21;45.20
8699;BME280;4386;51.236;6.742;2022-08-25T03:21:52;101204.88;;;25.21;45.17
8699;BME280;4386;51.236;6.742;2022-08-25T03:22:56;101201.34;;;25.20;44.81
8699;BME280;4386;51.236;6.742;2022-08-25T03:24:05;101206.75;;;25.20;45.10
8699;BME280;4386;51.236;6.742;2022-08-25T03:25:09;101205.09;;;25.19;44.98
8699;BME280;4386;51.236;6.742;2022-08-25T03:26:30;101198.84;;;25.19;45.32
8699;BME280;4386;51.236;6.742;2022-08-25T03:27:51;101199.25;;;25.16;45.23
8699;BME280;4386;51.236;6.742;2022-08-25T03:28:56;101196.72;;;25.14;45.50
8699;BME280;4386;51.236;6.742;2022-08-25T03:30:05;101202.16;;;25.14;45.57
8699;BME280;4386;51.236;6.742;2022-08-25T03:31:08;101203.19;;;25.13;45.73
8699;BME280;4386;51.236;6.742;2022-08-25T03:32:11;101198.81;;;25.12;45.42
8699;BME280;4386;51.236;6.742;2022-08-25T03:33:13;101200.69;;;25.12;45.21
8699;BME280;4386;51.236;6.742;2022-08-25T03:34:17;101199.00;;;25.11;45.41
8699;BME280;4386;51.236;6.742;2022-08-25T03:35:20;101194.59;;;25.10;45.48
8699;BME280;4386;51.236;6.742;2022-08-25T03:36:24;101198.38;;;25.09;45.87
8699;BME280;4386;51.236;6.742;2022-08-25T03:37:29;101194.81;;;25.08;45.53
8699;BME280;4386;51.236;6.742;2022-08-25T03:38:31;101200.25;;;25.08;45.88
8699;BME280;4386;51.236;6.742;2022-08-25T03:39:34;101196.69;;;25.08;45.81
8699;BME280;4386;51.236;6.742;2022-08-25T03:40:38;101194.22;;;25.06;46.23
8699;BME280;4386;51.236;6.742;2022-08-25T03:41:41;101196.91;;;25.06;46.00
8699;BME280;4386;51.236;6.742;2022-08-25T03:42:44;101192.53;;;25.05;45.73
8699;BME280;4386;51.236;6.742;2022-08-25T03:43:50;101195.25;;;25.05;46.07
8699;BME280;4386;51.236;6.742;2022-08-25T03:44:53;101202.72;;;25.03;45.95
8699;BME280;4386;51.236;6.742;2022-08-25T03:45:55;101197.28;;;25.03;45.75
8699;BME280;4386;51.236;6.742;2022-08-25T03:46:58;101198.34;;;25.02;46.04
8699;BME280;4386;51.236;6.742;2022-08-25T03:48:00;101195.81;;;25.01;45.74
8699;BME280;4386;51.236;6.742;2022-08-25T03:49:04;101194.19;;;25.00;45.73
8699;BME280;4386;51.236;6.742;2022-08-25T03:50:09;101192.28;;;25.00;45.86
8699;BME280;4386;51.236;6.742;2022-08-25T03:51:18;101201.47;;;24.99;45.88
8699;BME280;4386;51.236;6.742;2022-08-25T03:52:20;101200.81;;;24.97;46.37
8699;BME280;4386;51.236;6.742;2022-08-25T03:53:23;101197.28;;;24.97;46.43
8699;BME280;4386;51.236;6.742;2022-08-25T03:54:25;101199.16;;;24.96;46.35
8699;BME280;4386;51.236;6.742;2022-08-25T03:55:28;101202.91;;;24.95;46.19
8699;BME280;4386;51.236;6.742;2022-08-25T03:56:34;101197.47;;;24.95;46.54
8699;BME280;4386;51.236;6.742;2022-08-25T03:57:37;101195.81;;;24.94;46.16
8699;BME280;4386;51.236;6.742;2022-08-25T03:58:39;101198.72;;;24.93;46.78
8699;BME280;4386;51.236;6.742;2022-08-25T03:59:42;101204.16;;;24.93;46.61
8699;BME280;4386;51.236;6.742;2022-08-25T04:00:44;101197.88;;;24.92;46.95
8699;BME280;4386;51.236;6.742;2022-08-25T04:01:47;101194.56;;;24.90;46.55
8699;BME280;4386;51.236;6.742;2022-08-25T04:02:55;101186.59;;;24.88;46.58
8699;BME280;4386;51.236;6.742;2022-08-25T04:03:57;101187.84;;;24.86;46.64
8699;BME280;4386;51.236;6.742;2022-08-25T04:04:59;101178.66;;;24.87;46.82
8699;BME280;4386;51.236;6.742;2022-08-25T04:06:03;101175.31;;;24.85;46.91
8699;BME280;4386;51.236;6.742;2022-08-25T04:07:05;101172.81;;;24.83;47.23
8699;BME280;4386;51.236;6.742;2022-08-25T04:08:09;101173.16;;;24.80;47.15
8699;BME280;4386;51.236;6.742;2022-08-25T04:09:10;101165.25;;;24.79;46.84
8699;BME280;4386;51.236;6.742;2022-08-25T04:10:13;101167.97;;;24.79;47.11
8699;BME280;4386;51.236;6.742;2022-08-25T04:11:19;101163.56;;;24.78;47.29
8699;BME280;4386;51.236;6.742;2022-08-25T04:12:23;101160.00;;;24.77;47.37
8699;BME280;4386;51.236;6.742;2022-08-25T04:13:25;101160.22;;;24.76;47.34
8699;BME280;4386;51.236;6.742;2022-08-25T04:14:28;101159.38;;;24.75;47.77
8699;BME280;4386;51.236;6.742;2022-08-25T04:15:30;101157.53;;;24.76;47.43
8699;BME280;4386;51.236;6.742;2022-08-25T04:16:34;101160.22;;;24.76;47.87
8699;BME280;4386;51.236;6.742;2022-08-25T04:17:37;101165.66;;;24.76;47.57
8699;BME280;4386;51.236;6.742;2022-08-25T04:18:40;101163.97;;;24.75;47.99
8699;BME280;4386;51.236;6.742;2022-08-25T04:19:42;101163.97;;;24.75;47.72
8699;BME280;4386;51.236;6.742;2022-08-25T04:20:45;101165.00;;;24.74;47.81
8699;BME280;4386;51.236;6.742;2022-08-25T04:21:47;101166.06;;;24.73;47.88
8699;BME280;4386;51.236;6.742;2022-08-25T04:22:50;101162.50;;;24.72;48.12
8699;BME280;4386;51.236;6.742;2022-08-25T04:23:53;101168.13;;;24.71;47.95
8699;BME280;4386;51.236;6.742;2022-08-25T04:24:57;101166.47;;;24.70;48.15
8699;BME280;4386;51.236;6.742;2022-08-25T04:25:59;101161.88;;;24.70;48.45
8699;BME280;4386;51.236;6.742;2022-08-25T04:27:02;101172.72;;;24.70;48.41
8699;BME280;4386;51.236;6.742;2022-08-25T04:28:05;101168.34;;;24.69;48.25
8699;BME280;4386;51.236;6.742;2022-08-25T04:29:09;101171.22;;;24.68;48.32
8699;BME280;4386;51.236;6.742;2022-08-25T04:30:12;101170.38;;;24.67;48.51
8699;BME280;4386;51.236;6.742;2022-08-25T04:31:16;101175.00;;;24.67;48.85
8699;BME280;4386;51.236;6.742;2022-08-25T04:32:18;101173.09;;;24.67;48.50
8699;BME280;4386;51.236;6.742;2022-08-25T04:33:21;101177.91;;;24.65;49.02
8699;BME280;4386;51.236;6.742;2022-08-25T04:34:25;101169.97;;;24.64;48.90
8699;BME280;4386;51.236;6.742;2022-08-25T04:35:31;101171.00;;;24.63;48.53
8699;BME280;4386;51.236;6.742;2022-08-25T04:36:35;101177.28;;;24.63;49.01
8699;BME280;4386;51.236;6.742;2022-08-25T04:37:38;101178.31;;;24.62;49.14
8699;BME280;4386;51.236;6.742;2022-08-25T04:38:41;101174.75;;;24.62;48.74
8699;BME280;4386;51.236;6.742;2022-08-25T04:39:44;101178.47;;;24.61;48.61
8699;BME280;4386;51.236;6.742;2022-08-25T04:40:54;101177.69;;;24.60;49.51
8699;BME280;4386;51.236;6.742;2022-08-25T04:41:58;101178.47;;;24.61;49.56
8699;BME280;4386;51.236;6.742;2022-08-25T04:43:00;101176.84;;;24.60;49.19
8699;BME280;4386;51.236;6.742;2022-08-25T04:44:05;101175.16;;;24.59;48.96
8699;BME280;4386;51.236;6.742;2022-08-25T04:45:07;101172.44;;;24.59;49.51
8699;BME280;4386;51.236;6.742;2022-08-25T04:46:12;101173.47;;;24.58;49.60
8699;BME280;4386;51.236;6.742;2022-08-25T04:47:21;101176.19;;;24.58;49.37
8699;BME280;4386;51.236;6.742;2022-08-25T04:48:25;101174.53;;;24.57;49.29
8699;BME280;4386;51.236;6.742;2022-08-25T04:49:27;101178.06;;;24.57;49.38
8699;BME280;4386;51.236;6.742;2022-08-25T04:50:29;101177.22;;;24.57;49.53
8699;BME280;4386;51.236;6.742;2022-08-25T04:51:33;101173.69;;;24.56;49.54
8699;BME280;4386;51.236;6.742;2022-08-25T04:52:36;101179.09;;;24.56;49.57
8699;BME280;4386;51.236;6.742;2022-08-25T04:53:38;101172.84;;;24.56;49.69
8699;BME280;4386;51.236;6.742;2022-08-25T04:54:42;101180.97;;;24.56;49.85
8699;BME280;4386;51.236;6.742;2022-08-25T04:55:45;101173.88;;;24.55;49.81
8699;BME280;4386;51.236;6.742;2022-08-25T04:56:50;101175.56;;;24.56;50.02
8699;BME280;4386;51.236;6.742;2022-08-25T04:57:56;101175.72;;;24.54;49.96
8699;BME280;4386;51.236;6.742;2022-08-25T04:59:02;101171.16;;;24.55;50.08
8699;BME280;4386;51.236;6.742;2022-08-25T05:00:07;101173.88;;;24.55;49.98
8699;BME280;4386;51.236;6.742;2022-08-25T05:01:13;101168.44;;;24.55;50.15
8699;BME280;4386;51.236;6.742;2022-08-25T05:02:16;101170.31;;;24.54;50.19
8699;BME280;4386;51.236;6.742;2022-08-25T05:03:19;101174.94;;;24.54;49.95
8699;BME280;4386;51.236;6.742;2022-08-25T05:04:22;101170.31;;;24.54;50.03
8699;BME280;4386;51.236;6.742;2022-08-25T05:05:29;101173.03;;;24.54;49.93
8699;BME280;4386;51.236;6.742;2022-08-25T05:06:34;101167.59;;;24.54;50.17
8699;BME280;4386;51.236;6.742;2022-08-25T05:07:36;101163.03;;;24.55;50.03
8699;BME280;4386;51.236;6.742;2022-08-25T05:08:39;101170.13;;;24.56;50.11
8699;BME280;4386;51.236;6.742;2022-08-25T05:09:41;101172.84;;;24.56;50.00
8699;BME280;4386;51.236;6.742;2022-08-25T05:10:43;101166.56;;;24.55;50.38
8699;BME280;4386;51.236;6.742;2022-08-25T05:11:45;101172.84;;;24.56;50.54
8699;BME280;4386;51.236;6.742;2022-08-25T05:12:49;101165.53;;;24.56;50.29
8699;BME280;4386;51.236;6.742;2022-08-25T05:13:53;101168.25;;;24.56;50.56
8699;BME280;4386;51.236;6.742;2022-08-25T05:14:56;101170.97;;;24.56;50.43
8699;BME280;4386;51.236;6.742;2022-08-25T05:16:22;101169.94;;;24.57;50.35
8699;BME280;4386;51.236;6.742;2022-08-25T05:17:25;101169.09;;;24.57;50.61
8699;BME280;4386;51.236;6.742;2022-08-25T05:18:30;101170.75;;;24.58;50.18
8699;BME280;4386;51.236;6.742;2022-08-25T05:19:32;101172.66;;;24.57;50.38
8699;BME280;4386;51.236;6.742;2022-08-25T05:20:36;101168.03;;;24.58;50.72
8699;BME280;4386;51.236;6.742;2022-08-25T05:21:38;101176.84;;;24.60;50.27
8699;BME280;4386;51.236;6.742;2022-08-25T05:22:43;101171.41;;;24.60;50.63
8699;BME280;4386;51.236;6.742;2022-08-25T05:23:47;101173.06;;;24.61;50.60
8699;BME280;4386;51.236;6.742;2022-08-25T05:24:49;101173.91;;;24.61;50.81
8699;BME280;4386;51.236;6.742;2022-08-25T05:25:52;101169.31;;;24.62;50.75
8699;BME280;4386;51.236;6.742;2022-08-25T05:26:54;101170.16;;;24.62;50.64
8699;BME280;4386;51.236;6.742;2022-08-25T05:27:57;101163.91;;;24.62;50.81
8699;BME280;4386;51.236;6.742;2022-08-25T05:29:00;101169.13;;;24.63;50.98
8699;BME280;4386;51.236;6.742;2022-08-25T05:30:06;101164.56;;;24.64;50.91
8699;BME280;4386;51.236;6.742;2022-08-25T05:31:10;101165.38;;;24.64;50.93
8699;BME280;4386;51.236;6.742;2022-08-25T05:32:14;101164.34;;;24.65;50.56
8699;BME280;4386;51.236;6.742;2022-08-25T05:33:18;101163.50;;;24.65;50.69
8699;BME280;4386;51.236;6.742;2022-08-25T05:34:20;101166.88;;;24.67;50.58
8699;BME280;4386;51.236;6.742;2022-08-25T05:35:23;101165.81;;;24.68;51.01
8699;BME280;4386;51.236;6.742;2022-08-25T05:36:26;101159.34;;;24.69;50.87
8699;BME280;4386;51.236;6.742;2022-08-25T05:37:29;101161.03;;;24.70;50.98
8699;BME280;4386;51.236;6.742;2022-08-25T05:38:31;101169.78;;;24.72;51.04
8699;BME280;4386;51.236;6.742;2022-08-25T05:39:34;101163.97;;;24.75;50.97
8699;BME280;4386;51.236;6.742;2022-08-25T05:40:37;101163.38;;;24.79;51.14
8699;BME280;4386;51.236;6.742;2022-08-25T05:41:39;101161.34;;;24.88;50.78
8699;BME280;4386;51.236;6.742;2022-08-25T05:42:42;101164.94;;;24.95;50.22